Time;durP1;ratioP1;P1;durP2;ratioP2;P2;SDS_P1;SDS_P2;PMS_P1;PMS_P2;Temp;Humidity;BMP_temperature;BMP_pressure;BME280_temperature;BME280_humidity;BME280_pressure;Samples;Min_cycle;Max_cycle;Signal;HPM_P1;HPM_P2
2022/05/15 00:02:34;;;;;;;11.02;5.70;;;8.00;99.90;;;;;;5042825;28;20836;-82
2022/05/15 00:04:59;;;;;;;8.90;5.40;;;8.00;99.90;;;;;;5042635;28;20459;-84
2022/05/15 00:07:25;;;;;;;10.25;5.20;;;8.00;99.90;;;;;;5047866;28;20436;-83
2022/05/15 00:09:50;;;;;;;8.48;5.45;;;7.90;99.90;;;;;;5047196;28;20419;-84
2022/05/15 00:12:16;;;;;;;8.43;5.30;;;7.90;99.90;;;;;;5050043;28;20442;-83
2022/05/15 00:14:43;;;;;;;8.05;4.95;;;7.90;99.90;;;;;;5029480;28;20839;-82
2022/05/15 00:17:09;;;;;;;11.38;6.07;;;7.80;99.90;;;;;;5046857;28;20393;-82
2022/05/15 00:19:35;;;;;;;10.13;5.63;;;7.80;99.90;;;;;;5030723;28;20736;-82
2022/05/15 00:22:00;;;;;;;9.10;6.03;;;7.70;99.90;;;;;;5045095;28;20379;-84
2022/05/15 00:24:28;;;;;;;10.43;6.10;;;7.70;99.90;;;;;;5056126;28;20363;-82
2022/05/15 00:26:54;;;;;;;10.65;5.93;;;7.60;99.90;;;;;;5062450;28;20378;-84
2022/05/15 00:29:20;;;;;;;11.50;5.93;;;7.60;99.90;;;;;;5069804;28;20376;-81
2022/05/15 00:31:46;;;;;;;11.37;6.03;;;7.50;99.90;;;;;;5051285;28;20371;-82
2022/05/15 00:34:11;;;;;;;9.97;5.40;;;7.50;99.90;;;;;;5067961;28;20363;-83
2022/05/15 00:36:37;;;;;;;6.88;5.05;;;7.50;99.90;;;;;;5074243;28;20400;-82
2022/05/15 00:39:05;;;;;;;9.40;5.68;;;7.50;99.90;;;;;;5075490;28;20397;-82
2022/05/15 00:41:32;;;;;;;8.38;5.50;;;7.40;99.90;;;;;;5058396;28;20390;-83
2022/05/15 00:43:59;;;;;;;7.93;5.15;;;7.40;99.90;;;;;;5075371;28;20479;-82
2022/05/15 00:46:29;;;;;;;8.57;5.38;;;7.40;99.90;;;;;;5058128;28;20376;-83
2022/05/15 00:48:57;;;;;;;8.70;5.38;;;7.30;99.90;;;;;;5075648;28;20395;-83
2022/05/15 00:51:36;;;;;;;7.97;5.38;;;7.20;99.90;;;;;;5040279;28;20412;-82
2022/05/15 00:54:26;;;;;;;7.75;5.13;;;7.20;99.90;;;;;;5032305;28;20372;-82
2022/05/15 00:57:01;;;;;;;7.65;5.55;;;7.20;99.90;;;;;;5032096;28;20449;-82
2022/05/15 00:59:29;;;;;;;9.90;6.10;;;7.10;99.90;;;;;;5050165;28;20364;-83
2022/05/15 01:01:55;;;;;;;8.15;5.78;;;7.10;99.90;;;;;;5049842;28;20376;-83
2022/05/15 01:04:21;;;;;;;11.63;5.97;;;7.10;99.90;;;;;;5049849;28;20513;-82
2022/05/15 01:06:46;;;;;;;8.37;5.60;;;7.10;99.90;;;;;;5032237;28;20922;-82
2022/05/15 01:09:13;;;;;;;10.10;5.57;;;7.10;99.90;;;;;;5033667;28;20406;-82
2022/05/15 01:11:41;;;;;;;9.48;5.72;;;7.10;99.90;;;;;;5056314;28;20901;-83
2022/05/15 01:14:11;;;;;;;9.25;5.47;;;7.00;99.90;;;;;;5056294;28;20382;-82
2022/05/15 01:16:37;;;;;;;9.32;5.70;;;7.00;99.90;;;;;;5056460;28;20754;-83
2022/05/15 01:19:04;;;;;;;7.93;5.22;;;7.00;99.90;;;;;;5056319;28;20411;-82
2022/05/15 01:21:35;;;;;;;8.70;5.73;;;7.00;99.90;;;;;;5037932;28;20386;-83
2022/05/15 01:24:03;;;;;;;8.55;5.72;;;6.90;99.90;;;;;;5038232;28;20364;-83
2022/05/15 01:26:30;;;;;;;8.35;5.25;;;6.90;99.90;;;;;;5038207;28;20388;-82
2022/05/15 01:28:56;;;;;;;8.38;5.55;;;6.90;99.90;;;;;;5037819;28;20383;-82
2022/05/15 01:31:23;;;;;;;9.23;5.50;;;6.80;99.90;;;;;;5056247;28;20380;-83
2022/05/15 01:33:50;;;;;;;8.77;5.67;;;6.80;99.90;;;;;;5056046;28;20371;-83
2022/05/15 01:36:21;;;;;;;7.80;4.95;;;6.70;99.90;;;;;;5056489;28;20465;-82
2022/05/15 01:38:47;;;;;;;10.02;5.55;;;6.70;99.90;;;;;;5055907;28;20359;-83
2022/05/15 01:41:12;;;;;;;10.00;6.18;;;6.60;99.90;;;;;;5055730;28;20442;-83
2022/05/15 01:43:43;;;;;;;10.83;5.90;;;6.60;99.90;;;;;;5055325;28;21571;-83
2022/05/15 01:46:10;;;;;;;10.40;5.88;;;6.60;99.90;;;;;;5037955;28;20850;-84
2022/05/15 01:48:36;;;;;;;9.98;6.22;;;6.60;99.90;;;;;;5056114;28;20450;-83
2022/05/15 01:51:03;;;;;;;10.82;5.60;;;6.60;99.90;;;;;;5055992;28;20752;-82
2022/05/15 01:53:29;;;;;;;9.43;6.07;;;6.60;99.90;;;;;;5057759;28;20379;-80
2022/05/15 01:55:54;;;;;;;12.07;6.10;;;6.70;99.90;;;;;;5051988;28;20395;-82
2022/05/15 01:58:20;;;;;;;10.73;5.40;;;6.70;99.90;;;;;;5067522;28;20427;-82
2022/05/15 02:00:46;;;;;;;9.75;5.70;;;6.70;99.90;;;;;;5051944;28;20406;-82
2022/05/15 02:03:11;;;;;;;10.80;5.72;;;6.60;99.90;;;;;;5069469;28;20364;-82
2022/05/15 02:05:37;;;;;;;9.25;5.60;;;6.50;99.90;;;;;;5056121;28;20410;-84
2022/05/15 02:08:04;;;;;;;7.73;5.40;;;6.40;99.90;;;;;;5038005;28;20387;-82
2022/05/15 02:10:29;;;;;;;10.13;5.40;;;6.40;99.90;;;;;;5055829;28;20383;-82
2022/05/15 02:12:55;;;;;;;7.82;4.68;;;6.30;99.90;;;;;;5037672;28;20812;-82
2022/05/15 02:15:21;;;;;;;8.25;5.35;;;6.30;99.90;;;;;;5055714;28;20363;-82
2022/05/15 02:17:47;;;;;;;5.60;4.53;;;6.20;99.90;;;;;;5055730;28;20868;-83
2022/05/15 02:20:13;;;;;;;7.63;5.18;;;6.20;99.90;;;;;;5055379;28;20367;-83
2022/05/15 02:22:40;;;;;;;7.67;4.70;;;6.20;99.90;;;;;;5051591;28;20450;-82
2022/05/15 02:25:08;;;;;;;9.37;5.57;;;6.20;99.90;;;;;;5052577;28;20443;-82
2022/05/15 02:27:34;;;;;;;11.48;5.93;;;6.10;99.90;;;;;;5034549;28;20688;-82
2022/05/15 02:30:02;;;;;;;9.30;5.68;;;6.20;99.90;;;;;;5052275;28;20865;-84
2022/05/15 02:32:28;;;;;;;9.30;5.90;;;6.10;99.90;;;;;;5052374;28;20395;-83
2022/05/15 02:34:53;;;;;;;7.07;5.20;;;6.10;99.90;;;;;;5052383;28;20363;-82
2022/05/15 02:37:19;;;;;;;9.20;5.60;;;6.10;99.90;;;;;;5052696;28;20857;-83
2022/05/15 02:39:45;;;;;;;7.25;5.45;;;6.10;99.90;;;;;;5052083;28;20367;-82
2022/05/15 02:42:10;;;;;;;8.43;5.70;;;6.00;99.90;;;;;;5051841;28;20916;-84
2022/05/15 02:44:36;;;;;;;9.98;5.60;;;6.00;99.90;;;;;;5034218;28;20414;-82
2022/05/15 02:47:02;;;;;;;9.38;5.53;;;6.00;99.90;;;;;;5051898;28;20360;-83
2022/05/15 02:52:12;;;;;;;6.90;4.85;;;5.90;99.90;;;;;;5051852;28;20352;-83
2022/05/15 02:54:37;;;;;;;8.03;5.20;;;5.90;99.90;;;;;;5051936;28;20793;-82
2022/05/15 02:57:07;;;;;;;8.50;5.33;;;5.90;99.90;;;;;;5051819;28;20442;-83
2022/05/15 02:59:34;;;;;;;8.13;5.30;;;5.80;99.90;;;;;;5034248;28;20375;-82
2022/05/15 03:02:00;;;;;;;7.35;4.93;;;5.80;99.90;;;;;;5051787;28;20368;-82
2022/05/15 03:04:26;;;;;;;7.85;5.03;;;5.80;99.90;;;;;;5051816;28;20472;-82
2022/05/15 03:06:52;;;;;;;9.13;5.93;;;5.80;99.90;;;;;;5033880;28;20873;-82
2022/05/15 03:09:19;;;;;;;11.95;5.63;;;5.80;99.90;;;;;;5051853;28;20374;-83
2022/05/15 03:11:44;;;;;;;8.82;5.88;;;5.80;99.90;;;;;;5051541;28;20379;-82
2022/05/15 03:14:10;;;;;;;6.13;5.37;;;5.80;99.90;;;;;;5051129;28;20386;-82
2022/05/15 03:16:36;;;;;;;8.57;6.00;;;5.80;99.90;;;;;;5051043;28;20486;-82
2022/05/15 03:19:02;;;;;;;9.27;5.50;;;5.80;99.90;;;;;;5051889;28;20869;-82
2022/05/15 03:21:30;;;;;;;9.65;5.53;;;5.80;99.90;;;;;;5051399;28;20842;-83
2022/05/15 03:24:02;;;;;;;8.13;5.75;;;5.70;99.90;;;;;;5033443;28;20430;-82
2022/05/15 03:26:29;;;;;;;6.15;5.18;;;5.70;99.90;;;;;;5033471;28;20430;-82
2022/05/15 03:28:55;;;;;;;7.30;5.40;;;5.70;99.90;;;;;;5033555;28;20478;-82
2022/05/15 03:31:21;;;;;;;8.85;6.10;;;5.70;99.90;;;;;;5051163;28;20940;-83
2022/05/15 03:33:47;;;;;;;9.87;5.70;;;5.70;99.90;;;;;;5050774;28;20734;-83
2022/05/15 03:36:14;;;;;;;8.32;5.50;;;5.80;99.90;;;;;;5051049;28;20399;-83
2022/05/15 03:38:42;;;;;;;8.23;5.47;;;5.80;99.90;;;;;;5051230;28;20371;-83
2022/05/15 03:41:08;;;;;;;6.63;5.67;;;5.80;99.90;;;;;;5050919;28;20419;-82
2022/05/15 03:43:35;;;;;;;8.70;6.07;;;5.80;99.90;;;;;;5032855;28;20885;-83
2022/05/15 03:46:01;;;;;;;7.57;5.60;;;5.80;99.90;;;;;;5033137;28;20413;-84
2022/05/15 03:48:27;;;;;;;8.13;5.88;;;5.90;99.90;;;;;;5050814;28;20379;-83
2022/05/15 03:50:53;;;;;;;8.05;5.50;;;5.90;99.90;;;;;;5032908;28;20368;-83
2022/05/15 03:53:19;;;;;;;7.50;5.68;;;5.90;99.90;;;;;;5050765;28;20372;-82
2022/05/15 03:55:44;;;;;;;7.45;5.55;;;6.00;99.90;;;;;;5032882;28;20474;-83
2022/05/15 03:58:10;;;;;;;9.00;5.95;;;6.00;99.90;;;;;;5030835;28;20387;-83
2022/05/15 04:00:36;;;;;;;6.82;5.20;;;6.00;99.90;;;;;;5049834;28;20725;-82
2022/05/15 04:03:01;;;;;;;9.17;6.07;;;6.10;99.90;;;;;;5050822;28;20374;-83
2022/05/15 04:05:28;;;;;;;6.97;5.40;;;6.20;99.90;;;;;;5050558;28;20419;-82
2022/05/15 04:07:56;;;;;;;6.80;5.90;;;6.30;99.90;;;;;;5032743;28;20459;-83
2022/05/15 04:10:22;;;;;;;8.32;5.82;;;6.30;99.90;;;;;;5050400;28;20376;-83
2022/05/15 04:12:48;;;;;;;8.27;5.70;;;6.40;99.90;;;;;;5032205;28;20800;-83
2022/05/15 04:15:14;;;;;;;7.45;5.32;;;6.50;99.90;;;;;;5050334;28;20375;-82
2022/05/15 04:17:45;;;;;;;7.28;5.30;;;6.50;99.90;;;;;;5032340;28;20916;-82
2022/05/15 04:20:12;;;;;;;7.20;5.40;;;6.60;99.90;;;;;;5032621;28;20391;-83
2022/05/15 04:22:38;;;;;;;7.13;5.38;;;6.70;99.90;;;;;;5050277;28;20391;-83
2022/05/15 04:25:05;;;;;;;6.22;5.10;;;6.70;99.90;;;;;;5050125;28;20368;-82
2022/05/15 04:27:30;;;;;;;6.25;5.32;;;6.80;99.90;;;;;;5050180;28;20376;-83
2022/05/15 04:29:56;;;;;;;11.07;5.50;;;6.90;99.90;;;;;;5049935;28;20479;-83
2022/05/15 04:32:22;;;;;;;8.80;4.87;;;7.00;99.90;;;;;;5032074;28;20371;-82
2022/05/15 04:34:47;;;;;;;22.15;7.10;;;7.10;99.90;;;;;;5050123;28;20379;-83
2022/05/15 04:37:13;;;;;;;11.60;5.50;;;7.30;99.90;;;;;;5032246;28;20396;-83
2022/05/15 04:39:39;;;;;;;7.75;5.05;;;7.60;99.90;;;;;;5050005;28;20372;-83
2022/05/15 04:42:05;;;;;;;8.70;4.70;;;8.10;99.90;;;;;;5049963;28;20395;-83
2022/05/15 04:44:30;;;;;;;8.95;4.68;;;8.60;99.90;;;;;;5049012;28;20380;-83
2022/05/15 04:46:56;;;;;;;7.32;4.93;;;8.90;99.90;;;;;;5049676;28;20383;-83
2022/05/15 04:49:22;;;;;;;6.43;4.70;;;9.30;99.90;;;;;;5049736;28;20414;-83
2022/05/15 04:51:47;;;;;;;6.73;4.73;;;9.50;99.90;;;;;;5049798;28;20375;-82
2022/05/15 04:54:13;;;;;;;13.27;5.00;;;9.50;99.90;;;;;;5049739;28;20429;-83
2022/05/15 04:56:39;;;;;;;9.18;4.57;;;9.70;99.90;;;;;;5049789;28;20912;-83
2022/05/15 04:59:04;;;;;;;6.20;4.67;;;10.00;99.90;;;;;;5049624;28;20383;-83
2022/05/15 05:01:30;;;;;;;9.25;5.05;;;10.40;99.90;;;;;;5049525;28;20738;-83
2022/05/15 05:03:57;;;;;;;9.98;4.75;;;10.70;99.90;;;;;;5031945;28;20881;-83
2022/05/15 05:06:23;;;;;;;8.57;4.90;;;10.90;99.90;;;;;;5031468;28;20707;-83
2022/05/15 05:08:49;;;;;;;6.93;4.60;;;11.00;99.90;;;;;;5031763;28;20380;-83
2022/05/15 05:11:15;;;;;;;9.90;4.87;;;11.10;99.90;;;;;;5049681;28;20382;-83
2022/05/15 05:13:40;;;;;;;11.00;5.13;;;11.20;99.90;;;;;;5031450;28;20391;-83
2022/05/15 05:16:06;;;;;;;21.73;5.87;;;11.20;99.90;;;;;;5049299;28;20395;-82
2022/05/15 05:18:32;;;;;;;14.18;5.25;;;11.20;99.90;;;;;;5031791;28;20386;-83
2022/05/15 05:20:57;;;;;;;9.53;5.27;;;11.30;99.90;;;;;;5031794;28;20777;-83
2022/05/15 05:23:23;;;;;;;9.37;4.93;;;11.40;99.90;;;;;;5049680;28;20425;-83
2022/05/15 05:25:48;;;;;;;9.10;4.68;;;11.60;99.90;;;;;;5049625;28;20411;-84
2022/05/15 05:28:15;;;;;;;9.93;4.60;;;11.70;99.90;;;;;;5049605;28;20407;-84
2022/05/15 05:30:41;;;;;;;7.57;4.47;;;11.90;99.90;;;;;;5049018;28;20371;-81
2022/05/15 05:33:07;;;;;;;10.52;4.90;;;12.10;99.90;;;;;;5049383;28;20368;-84
2022/05/15 05:35:35;;;;;;;9.43;4.93;;;12.30;99.90;;;;;;5049590;28;20368;-82
2022/05/15 05:38:01;;;;;;;8.57;4.35;;;12.40;99.90;;;;;;5049170;28;20392;-82
2022/05/15 05:40:27;;;;;;;7.57;4.03;;;12.30;99.90;;;;;;5049474;28;20367;-82
2022/05/15 05:42:52;;;;;;;9.37;4.43;;;12.40;99.90;;;;;;5049066;28;20757;-82
2022/05/15 05:45:18;;;;;;;8.87;4.40;;;12.30;99.90;;;;;;5048883;28;20429;-82
2022/05/15 05:47:48;;;;;;;9.55;3.90;;;12.50;99.90;;;;;;5049343;28;20884;-83
2022/05/15 05:50:16;;;;;;;7.03;3.80;;;12.70;99.90;;;;;;5049226;28;20439;-82
2022/05/15 05:52:41;;;;;;;8.63;4.07;;;13.00;99.90;;;;;;5047948;28;20372;-82
2022/05/15 05:55:10;;;;;;;9.00;4.10;;;13.10;99.90;;;;;;5049545;28;20375;-82
2022/05/15 05:57:36;;;;;;;10.02;4.43;;;13.20;99.90;;;;;;5062035;28;20401;-83
2022/05/15 06:00:05;;;;;;;6.63;3.50;;;13.10;99.90;;;;;;5043904;28;20380;-82
2022/05/15 06:02:30;;;;;;;9.80;3.50;;;13.20;99.90;;;;;;5046910;28;20495;-82
2022/05/15 06:04:56;;;;;;;6.55;3.90;;;13.30;99.90;;;;;;5065790;28;20390;-82
2022/05/15 06:07:25;;;;;;;7.77;4.00;;;13.50;99.90;;;;;;5060864;28;20433;-82
2022/05/15 06:09:51;;;;;;;7.80;3.00;;;13.50;99.90;;;;;;5053185;28;20429;-83
2022/05/15 06:12:21;;;;;;;6.88;2.53;;;13.60;99.90;;;;;;5052994;28;20376;-83
2022/05/15 06:14:47;;;;;;;7.28;2.72;;;13.60;99.90;;;;;;5035366;28;20449;-84
2022/05/15 06:17:13;;;;;;;7.65;2.90;;;13.80;99.90;;;;;;5034862;28;20427;-83
2022/05/15 06:19:38;;;;;;;6.32;2.67;;;13.90;99.90;;;;;;5034974;28;20411;-83
2022/05/15 06:22:04;;;;;;;6.03;2.40;;;13.90;99.90;;;;;;5035687;28;20379;-83
2022/05/15 06:24:30;;;;;;;8.13;2.50;;;14.00;99.90;;;;;;5052886;28;20866;-84
2022/05/15 06:26:58;;;;;;;6.32;2.47;;;14.00;99.90;;;;;;5053603;28;20467;-83
2022/05/15 06:29:25;;;;;;;8.40;2.73;;;14.20;99.90;;;;;;5053343;28;20486;-83
2022/05/15 06:31:51;;;;;;;6.20;2.28;;;14.60;99.90;;;;;;5052995;28;20897;-83
2022/05/15 06:34:16;;;;;;;5.85;2.17;;;14.80;99.90;;;;;;5053154;28;20380;-83
2022/05/15 06:36:43;;;;;;;5.65;2.53;;;14.80;99.90;;;;;;5053464;28;20809;-84
2022/05/15 06:39:09;;;;;;;5.68;2.28;;;15.00;99.90;;;;;;5052345;28;20371;-83
2022/05/15 06:41:34;;;;;;;6.22;2.38;;;15.30;99.90;;;;;;5052094;28;20395;-83
2022/05/15 06:44:00;;;;;;;5.60;2.30;;;15.70;99.90;;;;;;5052072;28;20454;-84
2022/05/15 06:46:27;;;;;;;6.17;2.20;;;16.10;99.90;;;;;;5033890;28;20418;-85
2022/05/15 06:48:52;;;;;;;12.63;3.17;;;16.30;99.90;;;;;;5052008;28;20379;-84
2022/05/15 06:51:18;;;;;;;6.63;2.33;;;16.20;99.90;;;;;;5052173;28;20380;-83
2022/05/15 06:53:44;;;;;;;5.95;2.40;;;16.20;99.90;;;;;;5052076;28;20372;-83
2022/05/15 06:58:55;;;;;;;18.27;3.67;;;;;;;;;;5052600;28;20413;-84
2022/05/15 07:01:21;;;;;;;4.43;2.08;;;;;;;;;;5051663;28;20510;-84
2022/05/15 07:03:47;;;;;;;5.17;2.30;;;;;;;;;;5052077;28;20443;-85
2022/05/15 07:06:13;;;;;;;6.67;2.90;;;16.10;99.90;;;;;;5052717;28;20671;-84
2022/05/15 07:08:40;;;;;;;9.18;2.95;;;16.00;99.90;;;;;;5051730;28;20379;-85
2022/05/15 07:11:05;;;;;;;5.80;2.38;;;15.90;99.90;;;;;;5052215;28;20850;-84
2022/05/15 07:13:32;;;;;;;5.60;2.10;;;16.00;99.90;;;;;;5051828;28;20376;-84
2022/05/15 07:15:58;;;;;;;4.30;2.42;;;16.30;99.90;;;;;;5033425;28;20384;-84
2022/05/15 07:18:24;;;;;;;5.93;2.10;;;16.80;99.90;;;;;;5033716;28;20935;-85
2022/05/15 07:20:51;;;;;;;4.70;2.10;;;16.80;99.90;;;;;;5051512;28;20403;-84
2022/05/15 07:23:17;;;;;;;21.67;3.75;;;16.80;99.90;;;;;;5033644;28;20463;-84
2022/05/15 07:25:43;;;;;;;5.60;2.20;;;16.50;99.90;;;;;;5051391;28;20364;-85
2022/05/15 07:28:08;;;;;;;4.47;2.10;;;16.50;99.90;;;;;;5049852;28;20376;-83
2022/05/15 07:30:34;;;;;;;5.47;2.22;;;16.20;99.90;;;;;;5050427;28;20908;-85
2022/05/15 07:33:00;;;;;;;7.13;2.63;;;16.50;99.90;;;;;;5050508;28;20450;-84
2022/05/15 07:35:26;;;;;;;8.00;2.42;;;16.70;99.90;;;;;;5032981;28;20379;-85
2022/05/15 07:37:52;;;;;;;5.27;1.90;;;16.90;99.90;;;;;;5033192;28;20398;-82
2022/05/15 07:40:18;;;;;;;5.00;2.03;;;17.30;99.90;;;;;;5051103;28;20707;-83
2022/05/15 07:42:43;;;;;;;6.20;2.50;;;17.50;99.90;;;;;;5033314;28;20383;-84
2022/05/15 07:45:10;;;;;;;7.60;2.70;;;17.90;99.90;;;;;;5032944;28;20387;-84
2022/05/15 07:47:36;;;;;;;10.57;2.42;;;17.90;99.90;;;;;;5051059;28;20383;-84
2022/05/15 07:50:02;;;;;;;5.70;2.20;;;18.00;99.90;;;;;;5051028;28;20371;-84
2022/05/15 07:52:28;;;;;;;6.25;2.28;;;18.10;99.90;;;;;;5033233;28;20379;-83
2022/05/15 07:54:53;;;;;;;4.57;2.30;;;18.00;99.90;;;;;;5032887;28;20749;-85
2022/05/15 07:57:19;;;;;;;7.10;2.30;;;18.00;99.90;;;;;;5050227;28;20411;-82
2022/05/15 07:59:45;;;;;;;5.70;2.30;;;17.90;99.90;;;;;;5050700;28;20384;-82
2022/05/15 08:02:11;;;;;;;5.40;2.30;;;18.00;99.90;;;;;;5032815;28;20419;-84
2022/05/15 08:10:07;;;;;;;5.37;2.60;;;18.10;99.90;;;;;;5051173;28;20433;-84
2022/05/15 08:12:34;;;;;;;6.82;2.35;;;17.70;99.90;;;;;;5032478;28;20406;-85
2022/05/15 08:15:01;;;;;;;7.75;2.38;;;17.80;99.90;;;;;;5032399;28;20830;-84
2022/05/15 08:17:26;;;;;;;6.32;2.60;;;18.20;99.90;;;;;;5031779;28;20395;-83
2022/05/15 08:25:20;;;;;;;6.38;2.50;;;18.90;99.60;;;;;;5050449;28;20706;-84
2022/05/15 08:27:46;;;;;;;5.65;2.40;;;18.80;99.90;;;;;;5032533;28;20831;-85
2022/05/15 08:30:12;;;;;;;6.03;2.50;;;18.90;99.90;;;;;;5050786;28;20372;-85
2022/05/15 08:32:38;;;;;;;7.25;2.55;;;;;;;;;;5047711;28;20421;-83
2022/05/15 08:35:04;;;;;;;5.03;2.15;;;;;;;;;;5049933;28;20430;-84
2022/05/15 08:37:30;;;;;;;5.30;2.40;;;;;;;;;;5049278;28;20442;-83
2022/05/15 08:39:57;;;;;;;3.63;1.93;;;19.60;97.20;;;;;;5049777;28;20411;-83
2022/05/15 08:42:33;;;;;;;7.27;2.20;;;19.20;95.60;;;;;;5049039;28;20457;-83
2022/05/15 08:45:01;;;;;;;5.28;2.10;;;18.50;95.30;;;;;;5029709;28;20383;-84
2022/05/15 08:47:39;;;;;;;3.10;1.60;;;18.40;95.60;;;;;;5050213;28;20384;-83
2022/05/15 08:50:10;;;;;;;4.57;1.90;;;18.20;95.40;;;;;;5031988;28;20427;-85
2022/05/15 08:52:41;;;;;;;5.38;2.20;;;18.10;96.80;;;;;;5050403;28;20387;-83
2022/05/15 08:55:15;;;;;;;4.90;2.20;;;18.00;95.70;;;;;;5032079;28;20390;-85
2022/05/15 08:58:03;;;;;;;3.65;1.80;;;18.10;95.70;;;;;;5031643;28;20406;-85
2022/05/15 09:00:34;;;;;;;3.67;1.80;;;18.20;96.00;;;;;;5050038;28;20372;-83
2022/05/15 09:03:16;;;;;;;4.07;1.60;;;18.40;96.70;;;;;;5049659;28;20390;-82
2022/05/15 09:06:13;;;;;;;3.35;1.90;;;18.70;94.60;;;;;;5031619;28;20416;-85
2022/05/15 09:09:07;;;;;;;3.65;1.77;;;18.80;94.60;;;;;;5023023;28;20437;-81
2022/05/15 09:11:55;;;;;;;5.25;1.70;;;18.90;94.30;;;;;;5044040;28;20380;-84
2022/05/15 09:14:56;;;;;;;2.92;1.58;;;19.10;94.10;;;;;;5025840;28;20456;-82
2022/05/15 09:17:32;;;;;;;3.30;1.50;;;19.30;93.80;;;;;;5025473;28;20397;-84
2022/05/15 09:20:11;;;;;;;3.40;1.80;;;19.20;96.20;;;;;;5023221;28;20366;-87
2022/05/15 09:22:44;;;;;;;5.05;1.92;;;19.10;93.10;;;;;;5042311;28;20409;-82
2022/05/15 09:25:23;;;;;;;4.47;2.07;;;19.30;94.30;;;;;;5044738;28;20412;-85
2022/05/15 09:28:08;;;;;;;5.20;2.00;;;19.50;94.20;;;;;;5026419;28;20456;-82
2022/05/15 09:30:42;;;;;;;4.82;1.63;;;19.80;95.30;;;;;;5026143;28;20416;-84
2022/05/15 09:33:23;;;;;;;3.93;1.67;;;20.00;94.00;;;;;;5029183;28;20895;-85
2022/05/15 09:35:49;;;;;;;2.20;1.40;;;19.80;96.10;;;;;;5048845;28;20446;-84
2022/05/15 09:38:27;;;;;;;2.53;1.35;;;19.60;92.00;;;;;;5045083;28;20425;-83
2022/05/15 09:44:43;;;;;;;4.18;1.80;;;19.00;96.20;;;;;;5045360;28;20820;-83
2022/05/15 09:47:32;;;;;;;3.83;1.80;;;19.10;91.50;;;;;;5028568;28;20383;-83
2022/05/15 09:49:58;;;;;;;3.35;1.70;;;18.90;92.50;;;;;;5049800;28;20515;-84
2022/05/15 09:52:35;;;;;;;5.67;2.00;;;18.90;92.30;;;;;;5048006;28;20368;-82
2022/05/15 09:55:25;;;;;;;2.25;1.15;;;19.00;93.10;;;;;;5046318;28;21477;-85
2022/05/15 09:58:03;;;;;;;1.70;1.10;;;19.60;95.10;;;;;;5045581;28;20391;-86
2022/05/15 10:00:32;;;;;;;2.50;1.33;;;20.10;91.50;;;;;;5029842;28;20407;-84
2022/05/15 10:03:04;;;;;;;2.30;1.30;;;20.10;89.70;;;;;;5045090;28;20442;-83
2022/05/15 10:05:33;;;;;;;2.60;1.17;;;20.10;91.30;;;;;;5028733;28;20729;-84
2022/05/15 10:08:08;;;;;;;2.63;1.40;;;20.20;89.20;;;;;;5028621;28;20384;-83
2022/05/15 10:10:55;;;;;;;3.75;1.27;;;20.20;91.70;;;;;;5045083;28;20486;-85
2022/05/15 10:13:35;;;;;;;3.45;1.20;;;20.30;91.00;;;;;;5009179;28;20395;-84
2022/05/15 10:16:23;;;;;;;1.92;1.20;;;20.60;89.40;;;;;;5025972;28;20394;-86
2022/05/15 10:18:58;;;;;;;3.08;1.20;;;20.50;92.00;;;;;;5030873;28;20415;-84
2022/05/15 10:21:25;;;;;;;1.30;0.93;;;;;;;;;;5052317;28;20451;-84
2022/05/15 10:23:57;;;;;;;4.53;1.30;;;20.30;88.00;;;;;;5055228;28;20406;-82
2022/05/15 10:26:31;;;;;;;4.78;1.45;;;20.40;88.30;;;;;;5060748;28;20372;-85
2022/05/15 10:29:36;;;;;;;2.20;1.30;;;20.20;99.90;;;;;;5052583;28;20372;-83
2022/05/15 10:32:17;;;;;;;3.60;1.38;;;19.90;86.90;;;;;;5047370;28;20389;-82
2022/05/15 10:34:44;;;;;;;2.78;1.30;;;19.80;88.90;;;;;;5054446;28;20393;-85
2022/05/15 10:37:33;;;;;;;3.15;1.30;;;19.90;89.10;;;;;;5042423;28;20477;-82
2022/05/15 10:40:08;;;;;;;2.80;1.10;;;19.80;88.20;;;;;;5042182;28;20377;-85
2022/05/15 10:43:12;;;;;;;2.55;1.23;;;20.10;91.60;;;;;;5039919;28;20380;-84
2022/05/15 10:46:00;;;;;;;2.80;1.25;;;20.60;83.00;;;;;;5041947;28;20385;-86
2022/05/15 10:48:35;;;;;;;2.05;1.00;;;20.60;83.60;;;;;;5045297;28;21072;-84
2022/05/15 10:51:12;;;;;;;2.20;1.03;;;20.70;87.10;;;;;;5041579;28;20407;-84
2022/05/15 11:00:05;;;;;;;2.47;1.10;;;21.30;80.00;;;;;;5041555;28;20882;-84
2022/05/15 11:03:09;;;;;;;2.03;1.08;;;21.20;83.20;;;;;;5042139;28;20488;-84
2022/05/15 11:05:59;;;;;;;1.65;1.10;;;21.00;80.60;;;;;;5050572;28;20378;-84
2022/05/15 11:08:49;;;;;;;2.80;1.10;;;20.80;85.60;;;;;;5043140;28;20716;-83
2022/05/15 11:11:29;;;;;;;2.00;1.20;;;20.80;85.80;;;;;;5006511;28;20378;-83
2022/05/15 11:13:56;;;;;;;4.88;1.50;;;21.00;82.40;;;;;;5019638;28;20393;-85
2022/05/15 11:16:48;;;;;;;2.70;1.10;;;20.90;84.80;;;;;;5037800;28;20450;-84
2022/05/15 11:19:20;;;;;;;3.20;0.90;;;21.00;86.50;;;;;;5038497;28;20383;-85
2022/05/15 11:21:45;;;;;;;1.95;0.85;;;;;;;;;;5040072;28;20502;-84
2022/05/15 11:24:15;;;;;;;3.90;1.00;;;;;;;;;;5043780;28;20453;-84
2022/05/15 11:26:46;;;;;;;1.65;0.95;;;;;;;;;;5043418;28;20363;-84
2022/05/15 11:29:14;;;;;;;1.25;0.73;;;;;;;;;;5041576;28;20377;-84
2022/05/15 11:31:45;;;;;;;3.13;0.90;;;;;;;;;;5025144;28;20377;-85
2022/05/15 11:34:11;;;;;;;3.20;1.30;;;;;;;;;;5042904;28;20412;-85
2022/05/15 11:36:38;;;;;;;1.75;0.90;;;;;;;;;;5042748;28;20431;-84
2022/05/15 11:39:13;;;;;;;2.75;1.02;;;;;;;;;;5024486;28;20550;-84
2022/05/15 11:41:39;;;;;;;2.53;1.20;;;;;;;;;;5054377;28;20433;-83
2022/05/15 11:44:31;;;;;;;2.05;1.10;;;;;;;;;;5042506;28;20362;-83
2022/05/15 11:46:59;;;;;;;2.70;1.10;;;;;;;;;;5025288;28;20379;-83
2022/05/15 11:49:39;;;;;;;1.80;1.03;;;;;;;;;;5024301;28;20796;-85
2022/05/15 11:52:14;;;;;;;1.55;0.80;;;;;;;;;;5043923;28;20373;-82
2022/05/15 11:54:45;;;;;;;2.92;1.10;;;;;;;;;;5043889;28;20386;-85
2022/05/15 11:57:31;;;;;;;1.45;0.90;;;;;;;;;;5025364;28;20431;-83
2022/05/15 11:59:59;;;;;;;1.70;0.80;;;;;;;;;;5056048;28;20530;-85
2022/05/15 12:02:30;;;;;;;2.35;1.30;;;;;;;;;;5041349;28;20380;-85
2022/05/15 12:05:01;;;;;;;2.72;1.27;;;;;;;;;;5047220;28;20884;-85
2022/05/15 12:07:29;;;;;;;2.72;1.10;;;;;;;;;;5054572;28;20866;-84
2022/05/15 12:09:55;;;;;;;5.88;1.58;;;;;;;;;;5043592;28;20858;-84
2022/05/15 12:15:06;;;;;;;2.97;0.90;;;;;;;;;;5048109;28;20900;-84
2022/05/15 12:17:34;;;;;;;2.40;1.00;;;;;;;;;;5043309;28;20395;-83
2022/05/15 12:20:16;;;;;;;2.75;1.17;;;;;;;;;;5046358;28;20379;-85
2022/05/15 12:22:49;;;;;;;2.30;1.05;;;;;;;;;;5042515;28;20358;-82
2022/05/15 12:25:16;;;;;;;2.03;1.00;;;;;;;;;;5045938;28;20375;-83
2022/05/15 12:28:50;;;;;;;2.67;1.10;;;;;;;;;;5053495;28;20391;-83
2022/05/15 12:30:43;;;;;;;2.53;0.93;;;;;;;;;;5044335;28;20434;-85
2022/05/15 12:33:09;;;;;;;2.30;0.97;;;;;;;;;;5030666;28;20391;-86
2022/05/15 12:35:37;;;;;;;2.78;1.10;;;;;;;;;;5026765;28;20536;-85
2022/05/15 12:38:05;;;;;;;3.78;1.10;;;;;;;;;;5026343;28;20408;-84
2022/05/15 12:40:33;;;;;;;3.27;1.00;;;;;;;;;;5042146;28;20379;-83
2022/05/15 12:43:00;;;;;;;1.38;1.00;;;;;;;;;;5051090;28;20427;-84
2022/05/15 12:45:26;;;;;;;2.42;1.13;;;;;;;;;;5038577;28;20374;-84
2022/05/15 12:48:02;;;;;;;2.67;1.02;;;;;;;;;;5022004;28;20939;-85
2022/05/15 12:50:28;;;;;;;2.25;1.08;;;;;;;;;;5036578;28;20435;-83
2022/05/15 12:52:55;;;;;;;1.88;0.93;;;;;;;;;;5040758;28;20372;-84
2022/05/15 12:55:27;;;;;;;1.58;1.05;;;;;;;;;;5022943;28;20865;-84
2022/05/15 12:57:55;;;;;;;2.80;1.10;;;;;;;;;;5042530;28;20426;-85
2022/05/15 13:00:23;;;;;;;2.67;1.00;;;;;;;;;;5027196;28;20379;-84
2022/05/15 13:02:49;;;;;;;2.80;1.00;;;;;;;;;;5026837;28;20377;-84
2022/05/15 13:05:21;;;;;;;1.58;1.00;;;;;;;;;;5041903;28;20754;-85
2022/05/15 13:07:53;;;;;;;1.50;0.90;;;;;;;;;;5053787;28;20513;-83
2022/05/15 13:10:23;;;;;;;1.67;0.82;;;;;;;;;;5024451;28;20393;-84
2022/05/15 13:13:01;;;;;;;1.95;1.00;;;;;;;;;;5030186;28;20701;-84
2022/05/15 13:15:28;;;;;;;1.65;0.90;;;;;;;;;;5027381;28;20727;-84
2022/05/15 13:17:56;;;;;;;1.73;0.80;;;;;;;;;;5044353;28;20436;-84
2022/05/15 13:20:23;;;;;;;2.08;0.90;;;;;;;;;;5027950;28;20451;-85
2022/05/15 13:22:50;;;;;;;1.67;0.77;;;;;;;;;;5024762;28;20561;-85
2022/05/15 13:25:24;;;;;;;2.95;1.00;;;;;;;;;;5039869;28;20368;-85
2022/05/15 13:27:50;;;;;;;2.28;0.90;;;;;;;;;;5041978;28;20811;-85
2022/05/15 13:30:20;;;;;;;3.50;1.20;;;;;;;;;;5037522;28;20370;-83
2022/05/15 13:32:46;;;;;;;2.40;1.10;;;;;;;;;;5039115;28;20369;-82
2022/05/15 13:35:13;;;;;;;2.30;0.80;;;;;;;;;;5036997;28;20454;-83
2022/05/15 13:37:41;;;;;;;2.08;1.10;;;;;;;;;;5055086;28;20898;-83
2022/05/15 13:43:20;;;;;;;3.60;2.17;;;;;;;;;;5035338;28;20376;-82
2022/05/15 13:45:48;;;;;;;2.47;1.25;;;;;;;;;;5024355;28;20404;-82
2022/05/15 13:48:14;;;;;;;3.10;1.33;;;;;;;;;;5018393;28;20861;-82
2022/05/15 13:50:44;;;;;;;2.30;1.00;;;;;;;;;;5034884;28;20404;-83
2022/05/15 13:53:21;;;;;;;2.30;0.90;;;;;;;;;;5019373;28;20391;-85
2022/05/15 13:55:51;;;;;;;2.73;1.00;;;;;;;;;;5040331;28;21221;-84
2022/05/15 13:58:17;;;;;;;1.90;1.10;;;;;;;;;;5034816;28;20830;-84